createdAt,value
2019-06-01T00:02:04.356Z,7.65
2019-06-01T00:04:34.991Z,7.42
2019-06-01T00:07:05.722Z,7.90
2019-06-01T00:09:37.267Z,8.38
2019-06-01T00:12:07.702Z,7.67
2019-06-01T00:14:39.570Z,8.73
2019-06-01T00:17:10.463Z,9.28
2019-06-01T00:19:41.995Z,8.33
2019-06-01T00:22:12.503Z,8.30
2019-06-01T00:24:43.831Z,8.30
2019-06-01T00:27:14.350Z,9.53
2019-06-01T00:29:46.787Z,9.78
2019-06-01T00:32:17.408Z,8.75
2019-06-01T00:34:47.848Z,9.45
2019-06-01T00:37:18.457Z,9.05
2019-06-01T00:39:49.924Z,9.28
2019-06-01T00:42:20.359Z,8.90
2019-06-01T00:44:50.936Z,8.93
2019-06-01T00:47:21.587Z,9.73
2019-06-01T00:49:53.084Z,9.60
2019-06-01T00:52:23.783Z,8.78
2019-06-01T00:54:54.862Z,8.90
2019-06-01T00:57:25.427Z,9.08
2019-06-01T00:59:55.930Z,9.55
2019-06-01T01:02:26.559Z,10.15
2019-06-01T01:05:08.921Z,10.28
2019-06-01T01:07:39.490Z,10.40
2019-06-01T01:10:10.647Z,9.93
2019-06-01T01:12:58.682Z,9.38
2019-06-01T01:15:29.221Z,10.63
2019-06-01T01:18:01.272Z,10.93
2019-06-01T01:20:31.805Z,8.70
2019-06-01T01:23:02.590Z,9.43
2019-06-01T01:25:33.786Z,8.90
2019-06-01T01:28:04.636Z,9.80
2019-06-01T01:30:36.294Z,8.93
2019-06-01T01:33:08.430Z,8.48
2019-06-01T01:35:38.987Z,10.25
2019-06-01T01:38:09.514Z,11.65
2019-06-01T01:40:39.963Z,11.03
2019-06-01T01:43:10.490Z,11.15
2019-06-01T01:45:41.210Z,10.85
2019-06-01T01:48:11.679Z,9.80
2019-06-01T01:50:42.244Z,10.05
2019-06-01T01:53:12.737Z,10.30
2019-06-01T01:55:44.430Z,10.03
2019-06-01T01:58:14.936Z,11.85
2019-06-01T02:00:48.429Z,9.95
2019-06-01T02:03:18.967Z,10.50
2019-06-01T02:05:50.679Z,11.63
2019-06-01T02:08:21.249Z,11.10
2019-06-01T02:10:51.674Z,12.28
2019-06-01T02:13:22.127Z,9.70
2019-06-01T02:15:54.058Z,10.40
2019-06-01T02:18:24.597Z,11.57
2019-06-01T02:20:56.286Z,11.75
2019-06-01T02:23:26.761Z,12.33
2019-06-01T02:25:57.286Z,11.63
2019-06-01T02:28:27.801Z,11.53
2019-06-01T02:30:59.789Z,12.33
2019-06-01T02:33:30.501Z,12.13
2019-06-01T02:36:03.035Z,10.50
2019-06-01T02:38:33.142Z,9.83
2019-06-01T02:41:05.654Z,11.38
2019-06-01T02:43:37.170Z,10.80
2019-06-01T02:46:08.642Z,11.35
2019-06-01T02:48:39.200Z,11.03
2019-06-01T02:51:09.575Z,11.25
2019-06-01T02:53:39.965Z,9.85
2019-06-01T02:56:10.576Z,9.93
2019-06-01T02:58:41.296Z,11.50
2019-06-01T03:01:26.735Z,10.95
2019-06-01T03:03:57.784Z,10.60
2019-06-01T03:06:32.432Z,9.85
2019-06-01T03:09:06.812Z,9.20
2019-06-01T03:11:39.454Z,10.48
2019-06-01T03:14:13.120Z,10.43
2019-06-01T03:16:43.769Z,10.05
2019-06-01T03:19:17.070Z,10.43
2019-06-01T03:21:50.177Z,9.50
2019-06-01T03:24:25.015Z,8.53
2019-06-01T03:26:56.139Z,9.93
2019-06-01T03:29:29.577Z,9.75
2019-06-01T03:32:19.205Z,9.48
2019-06-01T03:34:32.173Z,9.33
2019-06-01T03:37:02.948Z,9.25
2019-06-01T03:39:35.281Z,10.10
2019-06-01T03:42:07.997Z,8.58
2019-06-01T03:44:38.494Z,9.03
2019-06-01T03:47:09.749Z,8.35
2019-06-01T03:49:40.390Z,7.60
2019-06-01T03:52:10.974Z,8.03
2019-06-01T03:54:41.420Z,8.53
2019-06-01T03:57:11.697Z,8.55
2019-06-01T03:59:42.213Z,8.38
2019-06-01T04:02:12.664Z,9.20
2019-06-01T04:04:43.188Z,8.80
2019-06-01T04:07:15.272Z,8.50
2019-06-01T04:09:45.658Z,8.15
2019-06-01T04:12:16.188Z,7.50
2019-06-01T04:14:46.623Z,8.03
2019-06-01T04:17:17.125Z,7.90
2019-06-01T04:19:47.635Z,7.45
2019-06-01T04:22:18.102Z,7.42
2019-06-01T04:24:48.528Z,7.72
2019-06-01T04:27:18.998Z,6.65
2019-06-01T04:29:51.051Z,6.10
2019-06-01T04:32:21.446Z,6.53
2019-06-01T04:34:51.936Z,7.70
2019-06-01T04:37:22.469Z,6.70
2019-06-01T04:39:52.892Z,6.08
2019-06-01T04:42:23.438Z,6.25
2019-06-01T04:44:53.970Z,6.10
2019-06-01T04:47:25.211Z,5.53
2019-06-01T04:49:55.826Z,5.90
2019-06-01T04:52:27.680Z,5.67
2019-06-01T04:54:58.300Z,5.55
2019-06-01T04:57:31.110Z,5.40
2019-06-01T05:00:03.251Z,5.67
2019-06-01T05:02:34.330Z,5.45
2019-06-01T05:05:09.160Z,4.78
2019-06-01T05:07:39.783Z,4.45
2019-06-01T05:10:11.582Z,4.33
2019-06-01T05:12:42.155Z,4.40
2019-06-01T05:15:16.127Z,4.53
2019-06-01T05:17:46.543Z,4.22
2019-06-01T05:20:17.314Z,4.42
2019-06-01T05:22:47.883Z,4.10
2019-06-01T05:25:18.324Z,4.37
2019-06-01T05:27:48.871Z,3.65
2019-06-01T05:30:19.875Z,3.47
2019-06-01T05:32:50.388Z,3.20
2019-06-01T05:35:22.820Z,2.95
2019-06-01T05:37:53.283Z,2.80
2019-06-01T05:40:23.874Z,3.10
2019-06-01T05:42:56.550Z,2.62
2019-06-01T05:45:27.029Z,2.92
2019-06-01T05:47:57.601Z,2.60
2019-06-01T05:50:28.994Z,2.40
2019-06-01T05:52:59.475Z,2.50
2019-06-01T05:55:29.984Z,2.42
2019-06-01T05:58:00.511Z,2.27
2019-06-01T06:00:42.429Z,2.15
2019-06-01T06:03:16.231Z,2.27
2019-06-01T06:05:46.515Z,1.87
2019-06-01T06:08:17.967Z,1.35
2019-06-01T06:10:48.519Z,1.30
2019-06-01T06:13:19.402Z,1.40
2019-06-01T06:15:52.293Z,1.05
2019-06-01T06:18:22.817Z,1.30
2019-06-01T06:20:53.291Z,1.17
2019-06-01T06:23:23.870Z,1.10
2019-06-01T06:25:54.505Z,1.10
2019-06-01T06:28:26.778Z,1.10
2019-06-01T06:30:57.384Z,1.25
2019-06-01T06:33:27.863Z,1.12
2019-06-01T06:35:58.470Z,1.35
2019-06-01T06:38:28.961Z,1.07
2019-06-01T06:40:59.584Z,1.27
2019-06-01T06:43:33.038Z,0.90
2019-06-01T06:46:02.537Z,0.90
2019-06-01T06:48:33.242Z,1.00
2019-06-01T06:51:03.811Z,1.10
2019-06-01T06:53:35.505Z,0.82
2019-06-01T06:56:10.035Z,1.10
2019-06-01T06:58:41.129Z,1.55
2019-06-01T07:01:12.252Z,1.22
2019-06-01T07:03:42.885Z,1.10
2019-06-01T07:06:13.310Z,1.17
2019-06-01T07:08:44.151Z,1.22
2019-06-01T07:11:14.597Z,1.05
2019-06-01T07:13:53.421Z,1.27
2019-06-01T07:16:23.989Z,1.05
2019-06-01T07:18:55.002Z,1.30
2019-06-01T07:21:25.848Z,1.30
2019-06-01T07:23:56.460Z,1.37
2019-06-01T07:26:30.179Z,1.00
2019-06-01T07:29:00.786Z,0.62
2019-06-01T07:31:32.493Z,1.05
2019-06-01T07:34:03.406Z,0.90
2019-06-01T07:36:33.936Z,1.10
2019-06-01T07:39:05.347Z,1.12
2019-06-01T07:41:35.885Z,0.90
2019-06-01T07:44:06.621Z,1.10
2019-06-01T07:46:37.161Z,1.10
2019-06-01T07:49:07.802Z,1.00
2019-06-01T07:51:38.309Z,0.88
2019-06-01T07:54:08.923Z,0.90
2019-06-01T07:56:39.843Z,1.45
2019-06-01T07:59:10.422Z,1.07
2019-06-01T08:01:41.203Z,1.10
2019-06-01T08:04:11.820Z,0.95
2019-06-01T08:06:46.072Z,0.80
2019-06-01T08:09:15.763Z,1.10
2019-06-01T08:11:46.145Z,1.27
2019-06-01T08:14:16.637Z,1.32
2019-06-01T08:16:47.163Z,1.77
2019-06-01T08:19:17.710Z,1.32
2019-06-01T08:21:48.285Z,1.30
2019-06-01T08:24:18.900Z,1.62
2019-06-01T08:26:49.936Z,1.50
2019-06-01T08:29:20.527Z,1.40
2019-06-01T08:31:55.656Z,1.40
2019-06-01T08:34:24.739Z,1.35
2019-06-01T08:36:55.586Z,1.20
2019-06-01T08:39:27.370Z,1.10
2019-06-01T08:41:58.144Z,1.10
2019-06-01T08:44:29.600Z,1.22
2019-06-01T08:47:00.304Z,1.50
2019-06-01T08:49:32.369Z,1.30
2019-06-01T08:52:03.014Z,1.20
2019-06-01T08:54:34.337Z,1.10
2019-06-01T08:57:04.937Z,1.27
2019-06-01T08:59:36.575Z,1.32
2019-06-01T09:02:07.142Z,1.15
2019-06-01T09:04:37.797Z,1.00
2019-06-01T09:07:08.378Z,1.42
2019-06-01T09:09:41.245Z,1.20
2019-06-01T09:12:15.956Z,1.02
2019-06-01T09:17:25.278Z,6.62
2019-06-01T09:19:57.029Z,1.42
2019-06-01T09:22:29.474Z,0.75
2019-06-01T09:25:03.593Z,1.65
2019-06-01T09:27:36.126Z,0.93
2019-06-01T09:30:10.016Z,0.80
2019-06-01T09:32:41.143Z,0.80
2019-06-01T09:35:14.214Z,0.75
2019-06-01T09:37:45.884Z,0.80
2019-06-01T09:40:18.325Z,1.60
2019-06-01T09:42:57.385Z,0.80
2019-06-01T09:45:30.493Z,0.80
2019-06-01T09:48:01.264Z,1.07
2019-06-01T09:50:33.404Z,0.82
2019-06-01T09:53:05.323Z,0.80
2019-06-01T09:55:36.438Z,0.95
2019-06-01T09:58:07.142Z,0.80
2019-06-01T10:00:42.952Z,1.07
2019-06-01T10:03:10.068Z,0.93
2019-06-01T10:05:40.558Z,0.70
2019-06-01T10:08:11.023Z,0.70
2019-06-01T10:10:42.313Z,1.25
2019-06-01T10:13:13.025Z,1.20
2019-06-01T10:15:43.898Z,0.60
2019-06-01T10:18:14.670Z,1.15
2019-06-01T10:20:45.521Z,1.00
2019-06-01T10:23:16.245Z,0.60
2019-06-01T10:25:46.917Z,0.88
2019-06-01T10:28:17.656Z,0.90
2019-06-01T10:30:48.312Z,0.70
2019-06-01T10:33:19.935Z,0.70
2019-06-01T10:35:50.611Z,0.68
2019-06-01T10:38:22.683Z,0.80
2019-06-01T10:40:54.423Z,0.88
2019-06-01T10:43:25.128Z,0.80
2019-06-01T10:45:55.874Z,0.80
2019-06-01T10:48:26.716Z,0.82
2019-06-01T10:50:58.390Z,0.78
2019-06-01T10:53:28.903Z,1.30
2019-06-01T10:55:59.459Z,1.00
2019-06-01T10:58:32.235Z,0.78
2019-06-01T11:01:02.924Z,1.00
2019-06-01T11:03:34.630Z,0.72
2019-06-01T11:06:05.209Z,0.85
2019-06-01T11:08:37.047Z,0.93
2019-06-01T11:11:07.781Z,0.93
2019-06-01T11:13:39.084Z,0.60
2019-06-01T11:16:09.738Z,0.50
2019-06-01T11:18:41.764Z,0.62
2019-06-01T11:21:13.020Z,0.70
2019-06-01T11:23:46.379Z,0.70
2019-06-01T11:26:16.202Z,1.40
2019-06-01T11:28:46.904Z,0.70
2019-06-01T11:31:17.587Z,0.70
2019-06-01T11:33:48.423Z,0.80
2019-06-01T11:36:19.359Z,0.57
2019-06-01T11:38:50.191Z,0.50
2019-06-01T11:41:20.899Z,0.60
2019-06-01T11:43:51.470Z,0.80
2019-06-01T11:46:22.374Z,0.80
2019-06-01T11:48:52.928Z,0.70
2019-06-01T11:51:23.870Z,0.90
2019-06-01T11:53:54.888Z,0.60
2019-06-01T11:56:25.601Z,0.62
2019-06-01T11:58:56.658Z,0.85
2019-06-01T12:01:27.899Z,0.80
2019-06-01T12:03:58.549Z,0.80
2019-06-01T12:06:29.086Z,0.80
2019-06-01T12:08:59.757Z,0.60
2019-06-01T12:11:30.563Z,0.85
2019-06-01T12:14:01.391Z,1.10
2019-06-01T12:16:32.136Z,0.90
2019-06-01T12:19:03.050Z,0.75
2019-06-01T12:21:34.176Z,0.90
2019-06-01T12:24:04.935Z,1.22
2019-06-01T12:26:35.513Z,2.02
2019-06-01T12:29:06.399Z,1.42
2019-06-01T12:31:38.023Z,0.90
2019-06-01T12:34:08.672Z,0.82
2019-06-01T12:36:40.879Z,0.98
2019-06-01T12:39:13.527Z,0.80
2019-06-01T12:41:45.530Z,0.70
2019-06-01T12:44:16.217Z,1.80
2019-06-01T12:46:47.039Z,0.98
2019-06-01T12:49:17.735Z,1.32
2019-06-01T12:51:48.958Z,0.90
2019-06-01T12:54:19.707Z,1.00
2019-06-01T12:56:50.424Z,0.75
2019-06-01T12:59:20.971Z,0.90
2019-06-01T13:01:51.798Z,0.78
2019-06-01T13:04:22.401Z,1.25
2019-06-01T13:06:54.177Z,0.90
2019-06-01T13:09:24.863Z,1.05
2019-06-01T13:11:55.473Z,1.27
2019-06-01T13:14:26.144Z,0.80
2019-06-01T13:17:06.773Z,0.80
2019-06-01T13:19:30.121Z,1.20
2019-06-01T13:22:00.557Z,1.00
2019-06-01T13:24:31.207Z,1.10
2019-06-01T13:27:01.901Z,0.90
2019-06-01T13:29:32.703Z,1.37
2019-06-01T13:32:03.404Z,0.90
2019-06-01T13:34:34.525Z,1.20
2019-06-01T13:37:05.332Z,1.10
2019-06-01T13:39:36.909Z,1.35
2019-06-01T13:42:07.564Z,0.80
2019-06-01T13:44:38.082Z,1.60
2019-06-01T13:47:08.796Z,1.55
2019-06-01T13:49:40.096Z,2.05
2019-06-01T13:52:11.032Z,1.50
2019-06-01T13:54:41.966Z,1.12
2019-06-01T13:57:12.532Z,1.12
2019-06-01T13:59:47.114Z,1.10
2019-06-01T14:02:17.781Z,1.17
2019-06-01T14:04:49.769Z,1.00
2019-06-01T14:07:20.390Z,1.00
2019-06-01T14:09:52.201Z,1.32
2019-06-01T14:12:23.464Z,1.32
2019-06-01T14:14:53.990Z,1.20
2019-06-01T14:17:24.513Z,1.70
2019-06-01T14:19:55.887Z,1.37
2019-06-01T14:22:26.489Z,1.10
2019-06-01T14:25:11.990Z,1.17
2019-06-01T14:27:29.289Z,0.90
2019-06-01T14:30:00.888Z,1.30
2019-06-01T14:32:35.623Z,1.05
2019-06-01T14:35:06.600Z,1.40
2019-06-01T14:37:37.722Z,1.27
2019-06-01T14:40:08.726Z,0.93
2019-06-01T14:42:39.370Z,1.07
2019-06-01T14:45:10.198Z,1.30
2019-06-01T14:47:40.896Z,1.22
2019-06-01T14:50:12.857Z,1.87
2019-06-01T14:52:43.579Z,1.75
2019-06-01T14:55:14.534Z,1.20
2019-06-01T14:57:45.246Z,1.35
2019-06-01T15:00:16.212Z,1.20
2019-06-01T15:02:48.113Z,1.62
2019-06-01T15:05:18.973Z,1.62
2019-06-01T15:07:50.192Z,0.82
2019-06-01T15:10:21.194Z,1.40
2019-06-01T15:12:56.544Z,1.62
2019-06-01T15:15:24.299Z,1.52
2019-06-01T15:17:55.505Z,1.10
2019-06-01T15:20:26.064Z,1.00
2019-06-01T15:22:56.675Z,1.12
2019-06-01T15:25:27.247Z,1.20
2019-06-01T15:27:58.888Z,1.40
2019-06-01T15:30:30.827Z,1.57
2019-06-01T15:33:03.417Z,1.20
2019-06-01T15:35:34.228Z,1.60
2019-06-01T15:38:04.974Z,1.57
2019-06-01T15:40:35.623Z,1.27
2019-06-01T15:43:06.143Z,1.05
2019-06-01T15:45:41.085Z,1.27
2019-06-01T15:48:09.124Z,1.30
2019-06-01T15:50:39.820Z,1.72
2019-06-01T15:53:11.871Z,1.65
2019-06-01T15:55:42.543Z,1.20
2019-06-01T15:58:13.146Z,1.40
2019-06-01T16:00:43.675Z,1.55
2019-06-01T16:03:14.262Z,1.40
2019-06-01T16:05:45.826Z,2.15
2019-06-01T16:08:16.422Z,1.47
2019-06-01T16:10:46.958Z,1.10
2019-06-01T16:13:17.616Z,2.35
2019-06-01T16:15:48.176Z,1.30
2019-06-01T16:18:18.721Z,1.12
2019-06-01T16:20:49.464Z,1.40
2019-06-01T16:23:20.115Z,1.52
2019-06-01T16:26:04.917Z,1.82
2019-06-01T16:28:22.898Z,1.85
2019-06-01T16:30:54.372Z,1.32
2019-06-01T16:33:24.999Z,1.95
2019-06-01T16:35:56.916Z,2.40
2019-06-01T16:38:27.552Z,1.90
2019-06-01T16:41:01.349Z,1.50
2019-06-01T16:43:32.541Z,1.10
2019-06-01T16:46:03.836Z,1.10
2019-06-01T16:48:34.749Z,1.42
2019-06-01T16:51:05.911Z,2.83
2019-06-01T16:53:36.586Z,2.00
2019-06-01T16:56:07.249Z,2.10
2019-06-01T16:58:37.751Z,1.90
2019-06-01T17:01:08.338Z,2.75
2019-06-01T17:03:39.638Z,1.80
2019-06-01T17:06:10.179Z,2.72
2019-06-01T17:08:41.182Z,2.37
2019-06-01T17:11:14.722Z,1.55
2019-06-01T17:13:45.808Z,1.60
2019-06-01T17:16:16.202Z,1.57
2019-06-01T17:18:46.855Z,1.40
2019-06-01T17:21:17.549Z,1.90
2019-06-01T17:23:48.684Z,1.98
2019-06-01T17:26:19.270Z,2.33
2019-06-01T17:28:50.171Z,1.85
2019-06-01T17:31:21.790Z,1.42
2019-06-01T17:33:52.293Z,1.80
2019-06-01T17:36:23.547Z,1.80
2019-06-01T17:38:54.150Z,2.20
2019-06-01T17:41:24.783Z,2.33
2019-06-01T17:43:55.296Z,2.20
2019-06-01T17:46:25.909Z,1.42
2019-06-01T17:48:56.417Z,1.50
2019-06-01T17:51:27.018Z,2.98
2019-06-01T17:53:57.559Z,2.27
2019-06-01T17:56:28.153Z,1.80
2019-06-01T17:58:58.627Z,2.17
2019-06-01T18:01:29.431Z,1.85
2019-06-01T18:04:02.239Z,2.10
2019-06-01T18:06:32.942Z,1.92
2019-06-01T18:09:03.848Z,2.10
2019-06-01T18:11:36.001Z,2.22
2019-06-01T18:14:08.201Z,1.98
2019-06-01T18:16:39.067Z,3.35
2019-06-01T18:19:10.402Z,3.10
2019-06-01T18:21:41.663Z,3.22
2019-06-01T18:24:14.752Z,3.17
2019-06-01T18:26:45.748Z,3.30
2019-06-01T18:29:16.473Z,3.50
2019-06-01T18:31:47.065Z,2.98
2019-06-01T18:34:17.770Z,2.95
2019-06-01T18:36:48.478Z,2.77
2019-06-01T18:39:19.123Z,2.72
2019-06-01T18:41:50.218Z,3.15
2019-06-01T18:44:20.812Z,3.70
2019-06-01T18:46:51.431Z,3.12
2019-06-01T18:49:22.355Z,2.50
2019-06-01T18:51:53.028Z,2.50
2019-06-01T18:54:23.810Z,2.30
2019-06-01T18:57:09.108Z,2.98
2019-06-01T18:59:26.828Z,4.08
2019-06-01T19:01:57.332Z,5.80
2019-06-01T19:04:28.478Z,10.80
2019-06-01T19:06:59.391Z,6.15
2019-06-01T19:09:30.019Z,4.85
2019-06-01T19:12:00.797Z,3.70
2019-06-01T19:14:32.898Z,2.85
2019-06-01T19:17:03.494Z,2.92
2019-06-01T19:19:34.229Z,2.35
2019-06-01T19:22:04.965Z,2.70
2019-06-01T19:24:36.611Z,2.65
2019-06-01T19:27:08.580Z,2.60
2019-06-01T19:29:39.325Z,3.35
2019-06-01T19:32:10.862Z,2.45
2019-06-01T19:34:42.117Z,3.17
2019-06-01T19:37:13.125Z,4.22
2019-06-01T19:39:44.423Z,3.65
2019-06-01T19:42:15.569Z,2.52
2019-06-01T19:44:46.299Z,3.33
2019-06-01T19:47:19.158Z,2.72
2019-06-01T19:49:50.326Z,3.08
2019-06-01T19:52:21.331Z,2.83
2019-06-01T19:54:52.159Z,2.50
2019-06-01T19:57:23.975Z,2.95
2019-06-01T19:59:54.771Z,2.80
2019-06-01T20:02:33.608Z,3.27
2019-06-01T20:04:59.459Z,3.27
2019-06-01T20:07:30.046Z,3.02
2019-06-01T20:10:00.618Z,3.02
2019-06-01T20:12:34.288Z,3.30
2019-06-01T20:15:05.357Z,2.65
2019-06-01T20:17:35.980Z,3.05
2019-06-01T20:20:07.060Z,3.15
2019-06-01T20:22:37.728Z,5.22
2019-06-01T20:25:08.683Z,4.90
2019-06-01T20:27:39.463Z,4.83
2019-06-01T20:30:11.711Z,4.28
2019-06-01T20:32:42.578Z,4.83
2019-06-01T20:35:13.999Z,4.80
2019-06-01T20:37:44.654Z,4.25
2019-06-01T20:40:16.341Z,4.55
2019-06-01T20:42:47.055Z,3.40
2019-06-01T20:45:18.765Z,3.52
2019-06-01T20:47:49.447Z,3.77
2019-06-01T20:50:20.813Z,3.27
2019-06-01T20:52:51.539Z,3.67
2019-06-01T20:55:24.316Z,3.72
2019-06-01T20:57:55.808Z,3.12
2019-06-01T21:00:26.357Z,3.33
2019-06-01T21:02:57.185Z,3.27
2019-06-01T21:05:27.862Z,3.60
2019-06-01T21:07:58.466Z,3.15
2019-06-01T21:10:30.746Z,3.45
2019-06-01T21:13:01.432Z,2.95
2019-06-01T21:15:33.094Z,2.95
2019-06-01T21:18:03.971Z,3.17
2019-06-01T21:20:34.596Z,2.50
2019-06-01T21:23:05.247Z,3.10
2019-06-01T21:25:36.027Z,2.85
2019-06-01T21:28:08.022Z,2.87
2019-06-01T21:30:38.648Z,2.83
2019-06-01T21:33:09.584Z,2.40
2019-06-01T21:35:43.150Z,2.22
2019-06-01T21:38:13.733Z,3.08
2019-06-01T21:40:44.617Z,3.10
2019-06-01T21:43:26.101Z,2.98
2019-06-01T21:45:50.245Z,3.27
2019-06-01T21:48:21.735Z,3.02
2019-06-01T21:50:54.896Z,3.27
2019-06-01T21:53:26.711Z,2.37
2019-06-01T21:55:57.855Z,2.70
2019-06-01T21:58:33.431Z,3.85
2019-06-01T22:01:04.696Z,2.60
2019-06-01T22:03:35.404Z,2.65
2019-06-01T22:06:14.820Z,2.58
2019-06-01T22:08:52.530Z,5.17
2019-06-01T22:11:23.375Z,3.67
2019-06-01T22:13:54.131Z,2.95
2019-06-01T22:16:25.798Z,3.12
2019-06-01T22:18:56.628Z,2.87
2019-06-01T22:21:27.928Z,2.98
2019-06-01T22:23:58.806Z,2.60
2019-06-01T22:26:29.454Z,2.83
2019-06-01T22:29:00.344Z,2.90
2019-06-01T22:31:33.529Z,2.80
2019-06-01T22:34:07.355Z,2.90
2019-06-01T22:36:37.951Z,2.77
2019-06-01T22:39:09.401Z,2.52
2019-06-01T22:41:40.030Z,3.20
2019-06-01T22:44:11.654Z,3.75
2019-06-01T22:46:42.870Z,3.25
2019-06-01T22:49:13.476Z,3.70
2019-06-01T22:51:44.391Z,3.58
2019-06-01T22:54:16.952Z,3.33
2019-06-01T22:56:47.566Z,2.95
2019-06-01T22:59:18.195Z,3.47
2019-06-01T23:01:49.421Z,3.33
2019-06-01T23:04:22.975Z,3.25
2019-06-01T23:06:53.692Z,3.58
2019-06-01T23:09:25.562Z,4.33
2019-06-01T23:11:56.222Z,3.85
2019-06-01T23:14:27.401Z,3.72
2019-06-01T23:16:57.925Z,4.00
2019-06-01T23:19:29.824Z,2.98
2019-06-01T23:22:00.549Z,3.55
2019-06-01T23:24:32.266Z,3.72
2019-06-01T23:27:02.867Z,3.55
2019-06-01T23:29:33.475Z,3.33
2019-06-01T23:32:04.047Z,3.52
2019-06-01T23:34:37.769Z,3.30
2019-06-01T23:37:08.453Z,4.03
2019-06-01T23:39:38.926Z,3.35
2019-06-01T23:42:09.604Z,4.12
2019-06-01T23:44:40.135Z,3.72
2019-06-01T23:47:10.644Z,3.22
2019-06-01T23:49:41.252Z,3.50
2019-06-01T23:52:11.890Z,3.85
2019-06-01T23:54:42.379Z,3.67
2019-06-01T23:57:12.910Z,3.33
2019-06-01T23:59:43.445Z,3.60
